sensor_id;sensor_type;location;lat;lon;timestamp;P1;durP1;ratioP1;P2;durP2;ratioP2
31004;SDS011;17676;52.254;4.490;2022-08-18T00:00:28;10.32;;;6.53;;
31004;SDS011;17676;52.254;4.490;2022-08-18T00:02:57;8.90;;;6.13;;
31004;SDS011;17676;52.254;4.490;2022-08-18T00:05:25;7.75;;;6.22;;
31004;SDS011;17676;52.254;4.490;2022-08-18T00:07:50;9.40;;;6.65;;
31004;SDS011;17676;52.254;4.490;2022-08-18T00:10:15;12.82;;;7.47;;
31004;SDS011;17676;52.254;4.490;2022-08-18T00:12:41;9.52;;;6.13;;
31004;SDS011;17676;52.254;4.490;2022-08-18T00:15:11;8.05;;;6.68;;
31004;SDS011;17676;52.254;4.490;2022-08-18T00:17:38;13.15;;;6.22;;
31004;SDS011;17676;52.254;4.490;2022-08-18T00:20:06;15.60;;;6.85;;
31004;SDS011;17676;52.254;4.490;2022-08-18T00:22:34;10.32;;;6.80;;
31004;SDS011;17676;52.254;4.490;2022-08-18T00:25:00;7.05;;;6.32;;
31004;SDS011;17676;52.254;4.490;2022-08-18T00:27:27;10.05;;;6.65;;
31004;SDS011;17676;52.254;4.490;2022-08-18T00:29:55;7.53;;;6.00;;
31004;SDS011;17676;52.254;4.490;2022-08-18T00:32:24;8.55;;;7.10;;
31004;SDS011;17676;52.254;4.490;2022-08-18T00:34:52;12.63;;;7.00;;
31004;SDS011;17676;52.254;4.490;2022-08-18T00:37:19;10.85;;;6.53;;
31004;SDS011;17676;52.254;4.490;2022-08-18T00:39:46;7.00;;;6.32;;
31004;SDS011;17676;52.254;4.490;2022-08-18T00:42:17;13.95;;;7.00;;
31004;SDS011;17676;52.254;4.490;2022-08-18T00:44:46;14.38;;;7.00;;
31004;SDS011;17676;52.254;4.490;2022-08-18T00:47:13;15.40;;;6.75;;
31004;SDS011;17676;52.254;4.490;2022-08-18T00:49:39;9.10;;;6.22;;
31004;SDS011;17676;52.254;4.490;2022-08-18T00:52:10;9.20;;;6.10;;
31004;SDS011;17676;52.254;4.490;2022-08-18T00:54:37;17.17;;;7.00;;
31004;SDS011;17676;52.254;4.490;2022-08-18T00:57:06;14.05;;;7.15;;
31004;SDS011;17676;52.254;4.490;2022-08-18T01:02:39;8.32;;;6.68;;
31004;SDS011;17676;52.254;4.490;2022-08-18T01:05:13;12.35;;;6.28;;
31004;SDS011;17676;52.254;4.490;2022-08-18T01:07:46;10.77;;;5.82;;
31004;SDS011;17676;52.254;4.490;2022-08-18T01:10:14;16.42;;;7.38;;
31004;SDS011;17676;52.254;4.490;2022-08-18T01:12:46;17.35;;;7.15;;
31004;SDS011;17676;52.254;4.490;2022-08-18T01:15:17;10.60;;;7.40;;
31004;SDS011;17676;52.254;4.490;2022-08-18T01:17:44;16.08;;;8.00;;
31004;SDS011;17676;52.254;4.490;2022-08-18T01:23:58;10.23;;;8.18;;
31004;SDS011;17676;52.254;4.490;2022-08-18T01:26:27;13.00;;;8.60;;
31004;SDS011;17676;52.254;4.490;2022-08-18T01:28:54;9.85;;;8.88;;
31004;SDS011;17676;52.254;4.490;2022-08-18T01:31:38;8.70;;;7.93;;
31004;SDS011;17676;52.254;4.490;2022-08-18T01:34:06;18.30;;;8.85;;
31004;SDS011;17676;52.254;4.490;2022-08-18T01:36:35;10.30;;;9.07;;
31004;SDS011;17676;52.254;4.490;2022-08-18T01:39:03;8.43;;;7.68;;
31004;SDS011;17676;52.254;4.490;2022-08-18T01:41:31;14.35;;;9.38;;
31004;SDS011;17676;52.254;4.490;2022-08-18T01:44:00;11.50;;;9.38;;
31004;SDS011;17676;52.254;4.490;2022-08-18T01:46:27;12.60;;;8.70;;
31004;SDS011;17676;52.254;4.490;2022-08-18T01:48:54;13.43;;;9.10;;
31004;SDS011;17676;52.254;4.490;2022-08-18T01:51:20;9.70;;;8.57;;
31004;SDS011;17676;52.254;4.490;2022-08-18T01:53:46;10.00;;;8.73;;
31004;SDS011;17676;52.254;4.490;2022-08-18T01:56:12;13.57;;;8.93;;
31004;SDS011;17676;52.254;4.490;2022-08-18T01:58:41;10.05;;;8.82;;
31004;SDS011;17676;52.254;4.490;2022-08-18T02:01:07;10.02;;;8.70;;
31004;SDS011;17676;52.254;4.490;2022-08-18T02:03:38;9.90;;;7.90;;
31004;SDS011;17676;52.254;4.490;2022-08-18T02:06:11;9.80;;;8.35;;
31004;SDS011;17676;52.254;4.490;2022-08-18T02:08:38;11.05;;;8.57;;
31004;SDS011;17676;52.254;4.490;2022-08-18T02:11:05;10.20;;;9.10;;
31004;SDS011;17676;52.254;4.490;2022-08-18T02:13:31;10.50;;;7.93;;
31004;SDS011;17676;52.254;4.490;2022-08-18T02:15:57;9.68;;;7.88;;
31004;SDS011;17676;52.254;4.490;2022-08-18T02:18:28;13.20;;;8.27;;
31004;SDS011;17676;52.254;4.490;2022-08-18T02:20:56;9.68;;;8.45;;
31004;SDS011;17676;52.254;4.490;2022-08-18T02:23:23;11.75;;;8.48;;
31004;SDS011;17676;52.254;4.490;2022-08-18T02:25:49;8.98;;;8.18;;
31004;SDS011;17676;52.254;4.490;2022-08-18T02:28:15;8.60;;;7.80;;
31004;SDS011;17676;52.254;4.490;2022-08-18T02:30:40;11.77;;;7.90;;
31004;SDS011;17676;52.254;4.490;2022-08-18T02:33:07;9.60;;;7.68;;
31004;SDS011;17676;52.254;4.490;2022-08-18T02:35:36;8.70;;;7.30;;
31004;SDS011;17676;52.254;4.490;2022-08-18T02:38:04;11.30;;;7.95;;
31004;SDS011;17676;52.254;4.490;2022-08-18T02:40:32;10.45;;;8.00;;
31004;SDS011;17676;52.254;4.490;2022-08-18T02:42:58;8.60;;;7.32;;
31004;SDS011;17676;52.254;4.490;2022-08-18T02:45:30;9.90;;;7.20;;
31004;SDS011;17676;52.254;4.490;2022-08-18T02:47:56;8.55;;;7.93;;
31004;SDS011;17676;52.254;4.490;2022-08-18T02:50:22;8.75;;;7.60;;
31004;SDS011;17676;52.254;4.490;2022-08-18T02:52:48;11.10;;;7.70;;
31004;SDS011;17676;52.254;4.490;2022-08-18T02:55:14;9.68;;;7.07;;
31004;SDS011;17676;52.254;4.490;2022-08-18T02:57:43;8.30;;;7.35;;
31004;SDS011;17676;52.254;4.490;2022-08-18T03:00:14;11.00;;;8.35;;
31004;SDS011;17676;52.254;4.490;2022-08-18T03:02:49;9.38;;;7.50;;
31004;SDS011;17676;52.254;4.490;2022-08-18T03:05:16;11.43;;;8.23;;
31004;SDS011;17676;52.254;4.490;2022-08-18T03:07:43;8.70;;;7.90;;
31004;SDS011;17676;52.254;4.490;2022-08-18T03:10:09;9.43;;;8.50;;
31004;SDS011;17676;52.254;4.490;2022-08-18T03:12:35;8.45;;;7.75;;
31004;SDS011;17676;52.254;4.490;2022-08-18T03:15:00;9.57;;;8.13;;
31004;SDS011;17676;52.254;4.490;2022-08-18T03:17:27;8.73;;;8.02;;
31004;SDS011;17676;52.254;4.490;2022-08-18T03:19:53;10.52;;;8.40;;
31004;SDS011;17676;52.254;4.490;2022-08-18T03:22:18;9.20;;;8.25;;
31004;SDS011;17676;52.254;4.490;2022-08-18T03:24:44;12.45;;;7.50;;
31004;SDS011;17676;52.254;4.490;2022-08-18T03:27:09;8.07;;;7.50;;
31004;SDS011;17676;52.254;4.490;2022-08-18T03:29:36;9.43;;;8.73;;
31004;SDS011;17676;52.254;4.490;2022-08-18T03:32:02;8.73;;;7.88;;
31004;SDS011;17676;52.254;4.490;2022-08-18T03:34:29;8.50;;;7.82;;
31004;SDS011;17676;52.254;4.490;2022-08-18T03:36:55;11.65;;;7.93;;
31004;SDS011;17676;52.254;4.490;2022-08-18T03:39:20;8.18;;;7.38;;
31004;SDS011;17676;52.254;4.490;2022-08-18T03:41:47;7.82;;;6.95;;
31004;SDS011;17676;52.254;4.490;2022-08-18T03:44:18;8.13;;;7.18;;
31004;SDS011;17676;52.254;4.490;2022-08-18T03:46:43;10.10;;;7.03;;
31004;SDS011;17676;52.254;4.490;2022-08-18T03:49:09;8.35;;;7.45;;
31004;SDS011;17676;52.254;4.490;2022-08-18T03:51:35;9.27;;;8.40;;
31004;SDS011;17676;52.254;4.490;2022-08-18T03:54:02;11.63;;;7.40;;
31004;SDS011;17676;52.254;4.490;2022-08-18T03:56:31;8.93;;;8.18;;
31004;SDS011;17676;52.254;4.490;2022-08-18T03:59:07;10.57;;;8.57;;
31004;SDS011;17676;52.254;4.490;2022-08-18T04:01:38;9.32;;;8.60;;
31004;SDS011;17676;52.254;4.490;2022-08-18T04:04:07;9.02;;;8.32;;
31004;SDS011;17676;52.254;4.490;2022-08-18T04:06:36;9.15;;;8.30;;
31004;SDS011;17676;52.254;4.490;2022-08-18T04:09:05;10.80;;;8.70;;
31004;SDS011;17676;52.254;4.490;2022-08-18T04:11:32;9.52;;;8.60;;
31004;SDS011;17676;52.254;4.490;2022-08-18T04:13:59;10.15;;;8.75;;
31004;SDS011;17676;52.254;4.490;2022-08-18T04:16:25;9.93;;;8.93;;
31004;SDS011;17676;52.254;4.490;2022-08-18T04:18:52;8.77;;;7.97;;
31004;SDS011;17676;52.254;4.490;2022-08-18T04:21:17;9.60;;;8.80;;
31004;SDS011;17676;52.254;4.490;2022-08-18T04:23:43;8.43;;;7.00;;
31004;SDS011;17676;52.254;4.490;2022-08-18T04:26:09;8.20;;;7.43;;
31004;SDS011;17676;52.254;4.490;2022-08-18T04:28:36;9.68;;;8.80;;
31004;SDS011;17676;52.254;4.490;2022-08-18T04:31:06;9.25;;;8.40;;
31004;SDS011;17676;52.254;4.490;2022-08-18T04:33:34;11.05;;;8.93;;
31004;SDS011;17676;52.254;4.490;2022-08-18T04:36:06;8.63;;;7.80;;
31004;SDS011;17676;52.254;4.490;2022-08-18T04:38:36;9.02;;;8.20;;
31004;SDS011;17676;52.254;4.490;2022-08-18T04:41:03;9.15;;;8.35;;
31004;SDS011;17676;52.254;4.490;2022-08-18T04:43:30;10.85;;;8.38;;
31004;SDS011;17676;52.254;4.490;2022-08-18T04:45:59;10.90;;;8.13;;
31004;SDS011;17676;52.254;4.490;2022-08-18T04:48:31;9.73;;;8.63;;
31004;SDS011;17676;52.254;4.490;2022-08-18T04:51:02;8.18;;;7.47;;
31004;SDS011;17676;52.254;4.490;2022-08-18T04:53:30;7.95;;;7.22;;
31004;SDS011;17676;52.254;4.490;2022-08-18T04:56:19;9.55;;;8.70;;
31004;SDS011;17676;52.254;4.490;2022-08-18T04:58:50;9.75;;;7.85;;
31004;SDS011;17676;52.254;4.490;2022-08-18T05:01:23;12.43;;;6.97;;
31004;SDS011;17676;52.254;4.490;2022-08-18T05:03:51;8.15;;;7.28;;
31004;SDS011;17676;52.254;4.490;2022-08-18T05:06:18;9.23;;;8.38;;
31004;SDS011;17676;52.254;4.490;2022-08-18T05:08:49;13.57;;;8.98;;
31004;SDS011;17676;52.254;4.490;2022-08-18T05:11:16;8.82;;;7.93;;
31004;SDS011;17676;52.254;4.490;2022-08-18T05:13:43;10.63;;;9.52;;
31004;SDS011;17676;52.254;4.490;2022-08-18T05:16:08;14.75;;;8.57;;
31004;SDS011;17676;52.254;4.490;2022-08-18T05:18:34;8.85;;;8.15;;
31004;SDS011;17676;52.254;4.490;2022-08-18T05:21:05;11.13;;;8.60;;
31004;SDS011;17676;52.254;4.490;2022-08-18T05:23:32;11.70;;;8.07;;
31004;SDS011;17676;52.254;4.490;2022-08-18T05:25:58;8.18;;;7.47;;
31004;SDS011;17676;52.254;4.490;2022-08-18T05:28:26;7.45;;;6.70;;
31004;SDS011;17676;52.254;4.490;2022-08-18T05:30:51;10.75;;;6.68;;
31004;SDS011;17676;52.254;4.490;2022-08-18T05:33:17;8.35;;;7.35;;
31004;SDS011;17676;52.254;4.490;2022-08-18T05:35:44;7.50;;;5.85;;
31004;SDS011;17676;52.254;4.490;2022-08-18T05:40:44;6.13;;;5.43;;
31004;SDS011;17676;52.254;4.490;2022-08-18T05:43:10;7.07;;;5.68;;
31004;SDS011;17676;52.254;4.490;2022-08-18T05:45:40;6.18;;;5.38;;
31004;SDS011;17676;52.254;4.490;2022-08-18T05:48:06;7.35;;;5.43;;
31004;SDS011;17676;52.254;4.490;2022-08-18T05:50:31;5.35;;;4.75;;
31004;SDS011;17676;52.254;4.490;2022-08-18T05:53:02;8.68;;;4.80;;
31004;SDS011;17676;52.254;4.490;2022-08-18T05:55:39;5.07;;;4.13;;
31004;SDS011;17676;52.254;4.490;2022-08-18T05:58:38;4.20;;;3.58;;
31004;SDS011;17676;52.254;4.490;2022-08-18T06:01:13;8.00;;;4.43;;
31004;SDS011;17676;52.254;4.490;2022-08-18T06:03:45;5.18;;;2.38;;
31004;SDS011;17676;52.254;4.490;2022-08-18T06:25:31;2.80;;;1.85;;
31004;SDS011;17676;52.254;4.490;2022-08-18T06:28:06;4.85;;;1.92;;
31004;SDS011;17676;52.254;4.490;2022-08-18T06:30:44;11.52;;;2.75;;
31004;SDS011;17676;52.254;4.490;2022-08-18T06:33:13;4.90;;;1.90;;
31004;SDS011;17676;52.254;4.490;2022-08-18T06:35:50;5.57;;;1.48;;
31004;SDS011;17676;52.254;4.490;2022-08-18T06:41:20;2.92;;;0.60;;
31004;SDS011;17676;52.254;4.490;2022-08-18T06:44:07;4.57;;;0.68;;
31004;SDS011;17676;52.254;4.490;2022-08-18T06:46:54;2.40;;;0.38;;
31004;SDS011;17676;52.254;4.490;2022-08-18T06:49:44;0.85;;;0.40;;
31004;SDS011;17676;52.254;4.490;2022-08-18T06:54:51;1.30;;;0.30;;
31004;SDS011;17676;52.254;4.490;2022-08-18T06:57:22;5.35;;;0.30;;
31004;SDS011;17676;52.254;4.490;2022-08-18T06:59:58;0.43;;;0.20;;
31004;SDS011;17676;52.254;4.490;2022-08-18T07:02:48;1.08;;;0.30;;
31004;SDS011;17676;52.254;4.490;2022-08-18T07:05:18;2.00;;;0.30;;
31004;SDS011;17676;52.254;4.490;2022-08-18T07:07:45;2.22;;;0.20;;
31004;SDS011;17676;52.254;4.490;2022-08-18T07:10:27;0.93;;;0.20;;
31004;SDS011;17676;52.254;4.490;2022-08-18T07:15:42;1.92;;;0.22;;
31004;SDS011;17676;52.254;4.490;2022-08-18T07:18:12;1.98;;;0.20;;
31004;SDS011;17676;52.254;4.490;2022-08-18T07:20:55;1.50;;;0.13;;
31004;SDS011;17676;52.254;4.490;2022-08-18T07:25:58;1.10;;;0.20;;
31004;SDS011;17676;52.254;4.490;2022-08-18T07:28:35;3.42;;;0.10;;
31004;SDS011;17676;52.254;4.490;2022-08-18T07:31:34;1.10;;;0.10;;
31004;SDS011;17676;52.254;4.490;2022-08-18T07:36:54;2.38;;;0.10;;
31004;SDS011;17676;52.254;4.490;2022-08-18T07:42:23;0.22;;;0.10;;
31004;SDS011;17676;52.254;4.490;2022-08-18T07:44:56;0.73;;;0.20;;
31004;SDS011;17676;52.254;4.490;2022-08-18T07:47:48;3.58;;;0.20;;
31004;SDS011;17676;52.254;4.490;2022-08-18T07:50:31;1.65;;;0.10;;
31004;SDS011;17676;52.254;4.490;2022-08-18T07:56:15;1.35;;;0.10;;
31004;SDS011;17676;52.254;4.490;2022-08-18T08:02:02;1.10;;;0.10;;
31004;SDS011;17676;52.254;4.490;2022-08-18T08:07:22;1.42;;;0.10;;
31004;SDS011;17676;52.254;4.490;2022-08-18T08:18:16;1.27;;;0.28;;
31004;SDS011;17676;52.254;4.490;2022-08-18T08:21:00;1.48;;;0.10;;
31004;SDS011;17676;52.254;4.490;2022-08-18T08:23:58;3.20;;;0.13;;
31004;SDS011;17676;52.254;4.490;2022-08-18T08:35:25;2.25;;;0.20;;
31004;SDS011;17676;52.254;4.490;2022-08-18T08:38:02;3.78;;;0.40;;
31004;SDS011;17676;52.254;4.490;2022-08-18T08:41:08;3.40;;;0.20;;
31004;SDS011;17676;52.254;4.490;2022-08-18T08:43:32;1.88;;;0.30;;
31004;SDS011;17676;52.254;4.490;2022-08-18T08:46:11;3.85;;;0.20;;
31004;SDS011;17676;52.254;4.490;2022-08-18T08:48:51;3.67;;;0.30;;
31004;SDS011;17676;52.254;4.490;2022-08-18T08:51:33;2.90;;;0.32;;
31004;SDS011;17676;52.254;4.490;2022-08-18T08:54:16;6.13;;;0.40;;
31004;SDS011;17676;52.254;4.490;2022-08-18T08:56:48;3.17;;;0.20;;
31004;SDS011;17676;52.254;4.490;2022-08-18T08:59:17;5.40;;;0.43;;
31004;SDS011;17676;52.254;4.490;2022-08-18T09:04:26;5.95;;;0.40;;
31004;SDS011;17676;52.254;4.490;2022-08-18T09:07:18;5.70;;;0.40;;
31004;SDS011;17676;52.254;4.490;2022-08-18T09:13:08;9.65;;;0.82;;
31004;SDS011;17676;52.254;4.490;2022-08-18T09:18:42;5.78;;;0.47;;
31004;SDS011;17676;52.254;4.490;2022-08-18T09:24:07;6.72;;;0.45;;
31004;SDS011;17676;52.254;4.490;2022-08-18T09:26:41;6.00;;;0.40;;
31004;SDS011;17676;52.254;4.490;2022-08-18T09:29:45;3.17;;;0.50;;
31004;SDS011;17676;52.254;4.490;2022-08-18T09:40:35;4.10;;;0.43;;
31004;SDS011;17676;52.254;4.490;2022-08-18T09:43:57;4.10;;;0.38;;
31004;SDS011;17676;52.254;4.490;2022-08-18T09:51:50;4.55;;;0.28;;
31004;SDS011;17676;52.254;4.490;2022-08-18T09:54:31;6.95;;;0.40;;
31004;SDS011;17676;52.254;4.490;2022-08-18T10:02:10;4.28;;;0.30;;
31004;SDS011;17676;52.254;4.490;2022-08-18T10:04:42;4.07;;;0.40;;
31004;SDS011;17676;52.254;4.490;2022-08-18T10:07:37;2.22;;;0.20;;
31004;SDS011;17676;52.254;4.490;2022-08-18T10:10:18;4.57;;;0.20;;
31004;SDS011;17676;52.254;4.490;2022-08-18T10:18:40;3.10;;;0.30;;
31004;SDS011;17676;52.254;4.490;2022-08-18T10:21:27;3.65;;;0.30;;
31004;SDS011;17676;52.254;4.490;2022-08-18T10:29:00;1.25;;;0.30;;
31004;SDS011;17676;52.254;4.490;2022-08-18T10:31:31;2.10;;;0.30;;
31004;SDS011;17676;52.254;4.490;2022-08-18T10:37:12;3.13;;;0.50;;
31004;SDS011;17676;52.254;4.490;2022-08-18T10:39:52;2.70;;;0.30;;
31004;SDS011;17676;52.254;4.490;2022-08-18T10:42:26;3.10;;;0.30;;
31004;SDS011;17676;52.254;4.490;2022-08-18T10:45:07;3.97;;;0.30;;
31004;SDS011;17676;52.254;4.490;2022-08-18T10:48:04;3.38;;;0.20;;
31004;SDS011;17676;52.254;4.490;2022-08-18T10:50:45;3.15;;;0.43;;
31004;SDS011;17676;52.254;4.490;2022-08-18T10:53:39;6.13;;;0.60;;
31004;SDS011;17676;52.254;4.490;2022-08-18T10:58:46;4.57;;;0.38;;
31004;SDS011;17676;52.254;4.490;2022-08-18T11:01:41;2.88;;;0.40;;
31004;SDS011;17676;52.254;4.490;2022-08-18T11:04:33;2.40;;;0.30;;
31004;SDS011;17676;52.254;4.490;2022-08-18T11:07:10;4.43;;;0.60;;
31004;SDS011;17676;52.254;4.490;2022-08-18T11:09:40;2.88;;;0.40;;
31004;SDS011;17676;52.254;4.490;2022-08-18T11:12:11;4.03;;;0.57;;
31004;SDS011;17676;52.254;4.490;2022-08-18T11:14:52;4.40;;;0.57;;
31004;SDS011;17676;52.254;4.490;2022-08-18T11:17:45;5.45;;;0.57;;
31004;SDS011;17676;52.254;4.490;2022-08-18T11:20:29;2.38;;;0.47;;
31004;SDS011;17676;52.254;4.490;2022-08-18T11:22:57;4.22;;;0.28;;
31004;SDS011;17676;52.254;4.490;2022-08-18T11:27:52;3.95;;;0.70;;
31004;SDS011;17676;52.254;4.490;2022-08-18T11:30:20;3.08;;;0.43;;
31004;SDS011;17676;52.254;4.490;2022-08-18T11:32:51;3.15;;;0.60;;
31004;SDS011;17676;52.254;4.490;2022-08-18T11:35:31;3.78;;;0.50;;
31004;SDS011;17676;52.254;4.490;2022-08-18T11:38:09;4.53;;;0.60;;
31004;SDS011;17676;52.254;4.490;2022-08-18T11:40:39;3.67;;;0.30;;
31004;SDS011;17676;52.254;4.490;2022-08-18T11:43:22;5.30;;;0.50;;
31004;SDS011;17676;52.254;4.490;2022-08-18T11:45:59;4.43;;;0.68;;
31004;SDS011;17676;52.254;4.490;2022-08-18T11:51:17;4.53;;;0.60;;
31004;SDS011;17676;52.254;4.490;2022-08-18T11:53:56;8.38;;;0.93;;
31004;SDS011;17676;52.254;4.490;2022-08-18T11:56:30;6.22;;;1.00;;
31004;SDS011;17676;52.254;4.490;2022-08-18T12:01:53;3.17;;;1.27;;
31004;SDS011;17676;52.254;4.490;2022-08-18T12:04:36;4.10;;;0.95;;
31004;SDS011;17676;52.254;4.490;2022-08-18T12:07:14;2.95;;;0.80;;
31004;SDS011;17676;52.254;4.490;2022-08-18T12:09:42;3.92;;;0.80;;
31004;SDS011;17676;52.254;4.490;2022-08-18T12:15:37;4.18;;;1.05;;
31004;SDS011;17676;52.254;4.490;2022-08-18T12:17:44;8.25;;;0.77;;
31004;SDS011;17676;52.254;4.490;2022-08-18T12:20:11;7.78;;;1.15;;
31004;SDS011;17676;52.254;4.490;2022-08-18T12:22:39;18.27;;;2.33;;
31004;SDS011;17676;52.254;4.490;2022-08-18T12:25:08;8.13;;;1.10;;
31004;SDS011;17676;52.254;4.490;2022-08-18T12:27:40;8.00;;;0.70;;
31004;SDS011;17676;52.254;4.490;2022-08-18T12:30:15;5.47;;;0.50;;
31004;SDS011;17676;52.254;4.490;2022-08-18T12:32:44;8.18;;;0.90;;
31004;SDS011;17676;52.254;4.490;2022-08-18T12:35:12;6.70;;;0.60;;
31004;SDS011;17676;52.254;4.490;2022-08-18T12:37:43;4.82;;;0.95;;
31004;SDS011;17676;52.254;4.490;2022-08-18T12:40:22;4.97;;;0.80;;
31004;SDS011;17676;52.254;4.490;2022-08-18T12:42:48;3.08;;;1.00;;
31004;SDS011;17676;52.254;4.490;2022-08-18T12:45:13;5.63;;;0.88;;
31004;SDS011;17676;52.254;4.490;2022-08-18T12:47:43;4.60;;;0.50;;
31004;SDS011;17676;52.254;4.490;2022-08-18T12:50:09;6.13;;;0.70;;
31004;SDS011;17676;52.254;4.490;2022-08-18T12:52:36;4.75;;;0.80;;
31004;SDS011;17676;52.254;4.490;2022-08-18T12:55:05;4.80;;;0.80;;
31004;SDS011;17676;52.254;4.490;2022-08-18T12:57:33;5.07;;;0.63;;
31004;SDS011;17676;52.254;4.490;2022-08-18T12:59:59;5.05;;;0.77;;
31004;SDS011;17676;52.254;4.490;2022-08-18T13:02:24;3.55;;;0.50;;
31004;SDS011;17676;52.254;4.490;2022-08-18T13:04:50;3.38;;;0.40;;
31004;SDS011;17676;52.254;4.490;2022-08-18T13:07:15;13.90;;;1.02;;
31004;SDS011;17676;52.254;4.490;2022-08-18T13:09:42;8.50;;;0.60;;
31004;SDS011;17676;52.254;4.490;2022-08-18T13:12:09;4.65;;;0.40;;
31004;SDS011;17676;52.254;4.490;2022-08-18T13:14:36;3.90;;;0.60;;
31004;SDS011;17676;52.254;4.490;2022-08-18T13:17:03;5.93;;;0.80;;
31004;SDS011;17676;52.254;4.490;2022-08-18T13:19:29;5.68;;;1.25;;
31004;SDS011;17676;52.254;4.490;2022-08-18T13:21:55;6.22;;;0.68;;
31004;SDS011;17676;52.254;4.490;2022-08-18T13:24:21;3.85;;;0.45;;
31004;SDS011;17676;52.254;4.490;2022-08-18T13:26:47;2.97;;;0.52;;
31004;SDS011;17676;52.254;4.490;2022-08-18T13:29:19;3.63;;;0.43;;
31004;SDS011;17676;52.254;4.490;2022-08-18T13:31:46;4.07;;;0.65;;
31004;SDS011;17676;52.254;4.490;2022-08-18T13:34:12;2.28;;;0.68;;
31004;SDS011;17676;52.254;4.490;2022-08-18T13:36:38;4.55;;;1.02;;
31004;SDS011;17676;52.254;4.490;2022-08-18T13:39:19;7.25;;;0.70;;
31004;SDS011;17676;52.254;4.490;2022-08-18T13:41:52;3.92;;;0.43;;
31004;SDS011;17676;52.254;4.490;2022-08-18T13:44:20;2.88;;;0.60;;
31004;SDS011;17676;52.254;4.490;2022-08-18T13:46:48;8.98;;;0.77;;
31004;SDS011;17676;52.254;4.490;2022-08-18T13:49:19;4.78;;;0.60;;
31004;SDS011;17676;52.254;4.490;2022-08-18T13:51:50;5.05;;;0.50;;
31004;SDS011;17676;52.254;4.490;2022-08-18T13:54:31;3.38;;;0.50;;
31004;SDS011;17676;52.254;4.490;2022-08-18T13:57:01;5.03;;;0.50;;
31004;SDS011;17676;52.254;4.490;2022-08-18T13:59:28;2.08;;;0.52;;
31004;SDS011;17676;52.254;4.490;2022-08-18T14:02:08;4.10;;;0.40;;
31004;SDS011;17676;52.254;4.490;2022-08-18T14:04:36;6.90;;;0.57;;
31004;SDS011;17676;52.254;4.490;2022-08-18T14:07:02;6.97;;;0.50;;
31004;SDS011;17676;52.254;4.490;2022-08-18T14:09:29;4.18;;;0.40;;
31004;SDS011;17676;52.254;4.490;2022-08-18T14:11:55;2.17;;;0.40;;
31004;SDS011;17676;52.254;4.490;2022-08-18T14:14:22;6.53;;;0.55;;
31004;SDS011;17676;52.254;4.490;2022-08-18T14:16:47;3.33;;;0.38;;
31004;SDS011;17676;52.254;4.490;2022-08-18T14:19:13;3.78;;;0.52;;
31004;SDS011;17676;52.254;4.490;2022-08-18T14:21:57;2.47;;;0.50;;
31004;SDS011;17676;52.254;4.490;2022-08-18T14:24:42;3.33;;;0.47;;
31004;SDS011;17676;52.254;4.490;2022-08-18T14:27:28;3.63;;;0.40;;
31004;SDS011;17676;52.254;4.490;2022-08-18T14:29:58;2.50;;;0.45;;
31004;SDS011;17676;52.254;4.490;2022-08-18T14:32:25;4.13;;;0.47;;
31004;SDS011;17676;52.254;4.490;2022-08-18T14:34:54;4.43;;;0.40;;
31004;SDS011;17676;52.254;4.490;2022-08-18T14:37:31;2.35;;;0.30;;
31004;SDS011;17676;52.254;4.490;2022-08-18T14:39:57;4.88;;;0.40;;
31004;SDS011;17676;52.254;4.490;2022-08-18T14:42:23;3.95;;;0.40;;
31004;SDS011;17676;52.254;4.490;2022-08-18T14:44:49;5.05;;;0.50;;
31004;SDS011;17676;52.254;4.490;2022-08-18T14:47:15;6.50;;;0.60;;
31004;SDS011;17676;52.254;4.490;2022-08-18T14:49:41;6.97;;;0.60;;
31004;SDS011;17676;52.254;4.490;2022-08-18T14:52:07;5.07;;;0.30;;
31004;SDS011;17676;52.254;4.490;2022-08-18T14:54:35;5.85;;;0.50;;
31004;SDS011;17676;52.254;4.490;2022-08-18T14:57:01;2.15;;;0.32;;
31004;SDS011;17676;52.254;4.490;2022-08-18T14:59:29;2.20;;;0.30;;
31004;SDS011;17676;52.254;4.490;2022-08-18T15:01:57;5.78;;;0.40;;
31004;SDS011;17676;52.254;4.490;2022-08-18T15:04:25;3.45;;;0.40;;
31004;SDS011;17676;52.254;4.490;2022-08-18T15:06:51;2.75;;;0.30;;
31004;SDS011;17676;52.254;4.490;2022-08-18T15:09:17;5.90;;;0.40;;
31004;SDS011;17676;52.254;4.490;2022-08-18T15:11:43;4.82;;;0.50;;
31004;SDS011;17676;52.254;4.490;2022-08-18T15:14:08;4.70;;;0.50;;
31004;SDS011;17676;52.254;4.490;2022-08-18T15:16:34;3.10;;;0.43;;
31004;SDS011;17676;52.254;4.490;2022-08-18T15:19:00;1.75;;;0.40;;
31004;SDS011;17676;52.254;4.490;2022-08-18T15:21:27;2.80;;;0.40;;
31004;SDS011;17676;52.254;4.490;2022-08-18T15:24:12;4.75;;;0.40;;
31004;SDS011;17676;52.254;4.490;2022-08-18T15:26:56;3.72;;;0.60;;
31004;SDS011;17676;52.254;4.490;2022-08-18T15:29:23;4.20;;;0.35;;
31004;SDS011;17676;52.254;4.490;2022-08-18T15:31:50;1.60;;;0.32;;
31004;SDS011;17676;52.254;4.490;2022-08-18T15:34:16;2.15;;;0.57;;
31004;SDS011;17676;52.254;4.490;2022-08-18T15:36:41;5.97;;;0.43;;
31004;SDS011;17676;52.254;4.490;2022-08-18T15:39:08;5.63;;;0.50;;
31004;SDS011;17676;52.254;4.490;2022-08-18T15:44:02;5.88;;;0.55;;
31004;SDS011;17676;52.254;4.490;2022-08-18T15:46:33;5.78;;;0.60;;
31004;SDS011;17676;52.254;4.490;2022-08-18T15:49:04;3.80;;;0.50;;
31004;SDS011;17676;52.254;4.490;2022-08-18T15:51:32;7.95;;;0.98;;
31004;SDS011;17676;52.254;4.490;2022-08-18T15:53:59;2.17;;;0.50;;
31004;SDS011;17676;52.254;4.490;2022-08-18T15:56:25;4.22;;;0.40;;
31004;SDS011;17676;52.254;4.490;2022-08-18T15:58:52;4.50;;;0.50;;
31004;SDS011;17676;52.254;4.490;2022-08-18T16:01:19;5.57;;;0.30;;
31004;SDS011;17676;52.254;4.490;2022-08-18T16:03:46;5.50;;;0.50;;
31004;SDS011;17676;52.254;4.490;2022-08-18T16:06:23;3.92;;;0.40;;
31004;SDS011;17676;52.254;4.490;2022-08-18T16:08:51;9.80;;;0.85;;
31004;SDS011;17676;52.254;4.490;2022-08-18T16:11:17;8.25;;;0.75;;
31004;SDS011;17676;52.254;4.490;2022-08-18T16:13:44;3.42;;;0.40;;
31004;SDS011;17676;52.254;4.490;2022-08-18T16:16:13;5.95;;;0.65;;
31004;SDS011;17676;52.254;4.490;2022-08-18T16:18:41;3.00;;;0.40;;
31004;SDS011;17676;52.254;4.490;2022-08-18T16:21:09;4.43;;;0.50;;
31004;SDS011;17676;52.254;4.490;2022-08-18T16:23:37;2.20;;;0.40;;
31004;SDS011;17676;52.254;4.490;2022-08-18T16:26:04;8.35;;;0.70;;
31004;SDS011;17676;52.254;4.490;2022-08-18T16:28:30;3.67;;;0.50;;
31004;SDS011;17676;52.254;4.490;2022-08-18T16:30:57;3.40;;;0.60;;
31004;SDS011;17676;52.254;4.490;2022-08-18T16:33:23;5.75;;;0.57;;
31004;SDS011;17676;52.254;4.490;2022-08-18T16:35:48;2.60;;;0.45;;
31004;SDS011;17676;52.254;4.490;2022-08-18T16:38:17;3.45;;;0.40;;
31004;SDS011;17676;52.254;4.490;2022-08-18T16:40:46;3.22;;;0.55;;
31004;SDS011;17676;52.254;4.490;2022-08-18T16:43:15;2.83;;;0.28;;
31004;SDS011;17676;52.254;4.490;2022-08-18T16:45:42;1.60;;;0.40;;
31004;SDS011;17676;52.254;4.490;2022-08-18T16:48:08;4.30;;;0.40;;
31004;SDS011;17676;52.254;4.490;2022-08-18T16:50:35;2.58;;;0.30;;
31004;SDS011;17676;52.254;4.490;2022-08-18T16:53:02;3.17;;;0.77;;
31004;SDS011;17676;52.254;4.490;2022-08-18T16:55:29;6.18;;;0.40;;
31004;SDS011;17676;52.254;4.490;2022-08-18T16:57:55;9.38;;;0.80;;
31004;SDS011;17676;52.254;4.490;2022-08-18T17:00:39;7.50;;;0.70;;
31004;SDS011;17676;52.254;4.490;2022-08-18T17:03:23;3.70;;;0.70;;
31004;SDS011;17676;52.254;4.490;2022-08-18T17:06:12;11.40;;;1.00;;
31004;SDS011;17676;52.254;4.490;2022-08-18T17:08:40;3.88;;;1.08;;
31004;SDS011;17676;52.254;4.490;2022-08-18T17:11:07;3.42;;;0.98;;
31004;SDS011;17676;52.254;4.490;2022-08-18T17:13:51;3.20;;;0.85;;
31004;SDS011;17676;52.254;4.490;2022-08-18T17:16:18;5.85;;;0.50;;
31004;SDS011;17676;52.254;4.490;2022-08-18T17:18:45;4.82;;;0.47;;
31004;SDS011;17676;52.254;4.490;2022-08-18T17:21:13;1.17;;;0.38;;